sensor_id;sensor_type;location;lat;lon;timestamp;pressure;altitude;pressure_sealevel;temperature;humidity
44359;BME280;30077;52.474;13.326;2023-03-18T00:04:51;100399.13;;;11.19;nan
44359;BME280;30077;52.474;13.326;2023-03-18T00:09:51;100403.34;;;11.23;nan
44359;BME280;30077;52.474;13.326;2023-03-18T00:14:52;100398.16;;;11.20;nan
44359;BME280;30077;52.474;13.326;2023-03-18T00:19:52;100392.53;;;11.26;nan
44359;BME280;30077;52.474;13.326;2023-03-18T00:24:53;100385.28;;;11.28;nan
44359;BME280;30077;52.474;13.326;2023-03-18T00:29:53;100375.09;;;11.19;nan
44359;BME280;30077;52.474;13.326;2023-03-18T00:34:54;100395.56;;;11.18;nan
44359;BME280;30077;52.474;13.326;2023-03-18T00:39:59;100387.63;;;11.17;nan
44359;BME280;30077;52.474;13.326;2023-03-18T00:45:07;100383.00;;;11.03;nan
44359;BME280;30077;52.474;13.326;2023-03-18T00:50:09;100383.88;;;11.03;nan
44359;BME280;30077;52.474;13.326;2023-03-18T00:55:10;100387.03;;;10.94;nan
44359;BME280;30077;52.474;13.326;2023-03-18T01:00:10;100380.19;;;10.89;nan
44359;BME280;30077;52.474;13.326;2023-03-18T01:05:11;100376.66;;;10.88;nan
44359;BME280;30077;52.474;13.326;2023-03-18T01:10:12;100385.59;;;10.87;nan
44359;BME280;30077;52.474;13.326;2023-03-18T01:15:14;100374.63;;;10.76;nan
44359;BME280;30077;52.474;13.326;2023-03-18T01:20:17;100377.44;;;10.73;nan
44359;BME280;30077;52.474;13.326;2023-03-18T01:25:18;100383.06;;;10.67;nan
44359;BME280;30077;52.474;13.326;2023-03-18T01:30:19;100379.25;;;10.72;nan
44359;BME280;30077;52.474;13.326;2023-03-18T01:35:19;100367.22;;;10.64;nan
44359;BME280;30077;52.474;13.326;2023-03-18T01:40:19;100370.38;;;10.72;nan
44359;BME280;30077;52.474;13.326;2023-03-18T01:45:22;100371.53;;;10.66;nan
44359;BME280;30077;52.474;13.326;2023-03-18T01:50:34;100361.66;;;10.68;nan
44359;BME280;30077;52.474;13.326;2023-03-18T01:55:35;100378.22;;;10.75;nan
44359;BME280;30077;52.474;13.326;2023-03-18T02:00:37;100369.28;;;10.76;nan
44359;BME280;30077;52.474;13.326;2023-03-18T02:05:39;100379.16;;;10.74;nan
44359;BME280;30077;52.474;13.326;2023-03-18T02:10:39;100378.22;;;10.75;nan
44359;BME280;30077;52.474;13.326;2023-03-18T02:15:52;100371.94;;;10.76;nan
44359;BME280;30077;52.474;13.326;2023-03-18T02:20:59;100361.13;;;10.79;nan
44359;BME280;30077;52.474;13.326;2023-03-18T02:26:08;100372.72;;;10.78;nan
44359;BME280;30077;52.474;13.326;2023-03-18T02:31:11;100362.28;;;10.73;nan
44359;BME280;30077;52.474;13.326;2023-03-18T02:36:14;100369.56;;;10.70;nan
44359;BME280;30077;52.474;13.326;2023-03-18T02:41:18;100361.41;;;10.73;nan
44359;BME280;30077;52.474;13.326;2023-03-18T02:51:29;100366.91;;;10.70;nan
44359;BME280;30077;52.474;13.326;2023-03-18T02:56:29;100362.59;;;10.67;nan
44359;BME280;30077;52.474;13.326;2023-03-18T03:01:30;100367.22;;;10.64;nan
44359;BME280;30077;52.474;13.326;2023-03-18T03:06:31;100365.63;;;10.59;nan
44359;BME280;30077;52.474;13.326;2023-03-18T03:11:31;100363.91;;;10.58;nan
44359;BME280;30077;52.474;13.326;2023-03-18T03:16:32;100365.00;;;10.54;nan
44359;BME280;30077;52.474;13.326;2023-03-18T03:21:32;100380.88;;;10.57;nan
44359;BME280;30077;52.474;13.326;2023-03-18T03:26:34;100376.44;;;10.56;nan
44359;BME280;30077;52.474;13.326;2023-03-18T03:31:34;100371.84;;;10.60;nan
44359;BME280;30077;52.474;13.326;2023-03-18T03:36:35;100370.97;;;10.59;nan
44359;BME280;30077;52.474;13.326;2023-03-18T03:41:35;100365.97;;;10.53;nan
44359;BME280;30077;52.474;13.326;2023-03-18T03:46:36;100366.81;;;10.54;nan
44359;BME280;30077;52.474;13.326;2023-03-18T03:51:36;100377.25;;;10.58;nan
44359;BME280;30077;52.474;13.326;2023-03-18T03:56:36;100371.22;;;10.55;nan
44359;BME280;30077;52.474;13.326;2023-03-18T04:01:37;100374.88;;;10.52;nan
44359;BME280;30077;52.474;13.326;2023-03-18T04:06:38;100362.59;;;10.50;nan
44359;BME280;30077;52.474;13.326;2023-03-18T04:11:38;100381.41;;;10.47;nan
44359;BME280;30077;52.474;13.326;2023-03-18T04:16:38;100389.31;;;10.48;nan
44359;BME280;30077;52.474;13.326;2023-03-18T04:21:39;100396.97;;;10.37;nan
44359;BME280;30077;52.474;13.326;2023-03-18T04:26:40;100399.94;;;10.31;nan
44359;BME280;30077;52.474;13.326;2023-03-18T04:31:40;100396.34;;;10.32;nan
44359;BME280;30077;52.474;13.326;2023-03-18T04:36:41;100395.41;;;10.33;nan
44359;BME280;30077;52.474;13.326;2023-03-18T04:41:41;100397.44;;;10.28;nan
44359;BME280;30077;52.474;13.326;2023-03-18T04:46:41;100396.69;;;10.24;nan
44359;BME280;30077;52.474;13.326;2023-03-18T04:51:42;100405.03;;;10.17;nan
44359;BME280;30077;52.474;13.326;2023-03-18T04:56:42;100410.53;;;10.13;nan
44359;BME280;30077;52.474;13.326;2023-03-18T05:01:42;100412.84;;;10.02;nan
44359;BME280;30077;52.474;13.326;2023-03-18T05:06:42;100413.25;;;9.93;nan
44359;BME280;30077;52.474;13.326;2023-03-18T05:11:43;100409.06;;;9.87;nan
44359;BME280;30077;52.474;13.326;2023-03-18T05:16:43;100405.63;;;9.85;nan
44359;BME280;30077;52.474;13.326;2023-03-18T05:21:44;100408.34;;;9.84;nan
44359;BME280;30077;52.474;13.326;2023-03-18T05:26:44;100412.78;;;9.83;nan
44359;BME280;30077;52.474;13.326;2023-03-18T05:31:44;100406.75;;;9.80;nan
44359;BME280;30077;52.474;13.326;2023-03-18T05:36:44;100411.34;;;9.76;nan
44359;BME280;30077;52.474;13.326;2023-03-18T05:41:45;100407.97;;;9.73;nan
44359;BME280;30077;52.474;13.326;2023-03-18T05:46:45;100415.53;;;9.82;nan
44359;BME280;30077;52.474;13.326;2023-03-18T05:51:45;100417.13;;;9.86;nan
44359;BME280;30077;52.474;13.326;2023-03-18T05:56:45;100426.50;;;9.95;nan
44359;BME280;30077;52.474;13.326;2023-03-18T06:01:46;100426.06;;;10.04;nan
44359;BME280;30077;52.474;13.326;2023-03-18T06:06:48;100427.25;;;10.17;nan
44359;BME280;30077;52.474;13.326;2023-03-18T06:11:48;100422.63;;;10.21;nan
44359;BME280;30077;52.474;13.326;2023-03-18T06:16:49;100420.72;;;10.23;nan
44359;BME280;30077;52.474;13.326;2023-03-18T06:21:49;100430.16;;;10.31;nan
44359;BME280;30077;52.474;13.326;2023-03-18T06:26:50;100430.88;;;10.35;nan
44359;BME280;30077;52.474;13.326;2023-03-18T06:31:50;100442.19;;;10.20;nan
44359;BME280;30077;52.474;13.326;2023-03-18T06:36:51;100445.00;;;10.17;nan
44359;BME280;30077;52.474;13.326;2023-03-18T06:41:52;100441.00;;;10.27;nan
44359;BME280;30077;52.474;13.326;2023-03-18T06:46:53;100441.81;;;10.29;nan
44359;BME280;30077;52.474;13.326;2023-03-18T06:51:54;100441.69;;;10.32;nan
44359;BME280;30077;52.474;13.326;2023-03-18T06:56:54;100442.16;;;10.40;nan
44359;BME280;30077;52.474;13.326;2023-03-18T07:01:54;100462.91;;;10.52;nan
44359;BME280;30077;52.474;13.326;2023-03-18T07:06:54;100474.59;;;10.69;nan
44359;BME280;30077;52.474;13.326;2023-03-18T07:11:55;100488.44;;;10.94;nan
44359;BME280;30077;52.474;13.326;2023-03-18T07:16:55;100483.75;;;11.17;nan
44359;BME280;30077;52.474;13.326;2023-03-18T07:21:55;100479.75;;;11.43;nan
44359;BME280;30077;52.474;13.326;2023-03-18T07:26:56;100477.63;;;11.67;nan
44359;BME280;30077;52.474;13.326;2023-03-18T07:31:56;100480.84;;;11.73;nan
44359;BME280;30077;52.474;13.326;2023-03-18T07:36:56;100485.47;;;11.87;nan
44359;BME280;30077;52.474;13.326;2023-03-18T07:41:58;100484.00;;;12.15;nan
44359;BME280;30077;52.474;13.326;2023-03-18T07:46:58;100499.94;;;12.49;nan
44359;BME280;30077;52.474;13.326;2023-03-18T07:51:58;100508.38;;;12.73;nan
44359;BME280;30077;52.474;13.326;2023-03-18T07:56:58;100512.69;;;13.08;nan
44359;BME280;30077;52.474;13.326;2023-03-18T08:01:58;100519.50;;;13.29;nan
44359;BME280;30077;52.474;13.326;2023-03-18T08:06:58;100517.56;;;13.61;nan
44359;BME280;30077;52.474;13.326;2023-03-18T08:11:59;100515.13;;;14.01;nan
44359;BME280;30077;52.474;13.326;2023-03-18T08:16:59;100509.88;;;14.42;nan
44359;BME280;30077;52.474;13.326;2023-03-18T08:21:59;100525.38;;;14.80;nan
44359;BME280;30077;52.474;13.326;2023-03-18T08:27:00;100535.22;;;15.21;nan
44359;BME280;30077;52.474;13.326;2023-03-18T08:32:00;100535.75;;;15.40;nan
44359;BME280;30077;52.474;13.326;2023-03-18T08:37:01;100529.84;;;15.48;nan
44359;BME280;30077;52.474;13.326;2023-03-18T08:42:02;100535.09;;;15.50;nan
44359;BME280;30077;52.474;13.326;2023-03-18T08:47:02;100532.16;;;15.67;nan
44359;BME280;30077;52.474;13.326;2023-03-18T08:52:04;100519.31;;;15.98;nan
44359;BME280;30077;52.474;13.326;2023-03-18T08:57:05;100523.13;;;16.45;nan
44359;BME280;30077;52.474;13.326;2023-03-18T09:02:06;100539.47;;;16.67;nan
44359;BME280;30077;52.474;13.326;2023-03-18T09:07:06;100545.03;;;16.90;nan
44359;BME280;30077;52.474;13.326;2023-03-18T09:12:06;100533.72;;;17.21;nan
44359;BME280;30077;52.474;13.326;2023-03-18T09:17:06;100532.94;;;16.95;nan
44359;BME280;30077;52.474;13.326;2023-03-18T09:22:07;100534.47;;;16.99;nan
44359;BME280;30077;52.474;13.326;2023-03-18T09:27:09;100543.47;;;17.11;nan
44359;BME280;30077;52.474;13.326;2023-03-18T09:32:09;100546.66;;;17.16;nan
44359;BME280;30077;52.474;13.326;2023-03-18T09:37:10;100554.66;;;17.18;nan
44359;BME280;30077;52.474;13.326;2023-03-18T09:42:17;100556.06;;;17.35;nan
44359;BME280;30077;52.474;13.326;2023-03-18T09:52:53;100561.41;;;17.47;nan
44359;BME280;30077;52.474;13.326;2023-03-18T09:57:59;100559.34;;;17.86;nan
44359;BME280;30077;52.474;13.326;2023-03-18T10:08:06;100560.22;;;18.67;nan
44359;BME280;30077;52.474;13.326;2023-03-18T10:13:14;100560.56;;;19.07;nan
44359;BME280;30077;52.474;13.326;2023-03-18T10:23:39;100551.56;;;19.50;nan
44359;BME280;30077;52.474;13.326;2023-03-18T10:34:09;100545.59;;;18.92;nan
44359;BME280;30077;52.474;13.326;2023-03-18T10:39:14;100557.09;;;19.05;nan
44359;BME280;30077;52.474;13.326;2023-03-18T10:44:17;100556.34;;;19.14;nan
44359;BME280;30077;52.474;13.326;2023-03-18T10:49:19;100565.00;;;18.97;nan
44359;BME280;30077;52.474;13.326;2023-03-18T10:54:26;100563.56;;;18.82;nan
44359;BME280;30077;52.474;13.326;2023-03-18T10:59:27;100557.81;;;19.18;nan
44359;BME280;30077;52.474;13.326;2023-03-18T11:04:30;100563.50;;;19.47;nan
44359;BME280;30077;52.474;13.326;2023-03-18T11:09:33;100555.56;;;19.67;nan
44359;BME280;30077;52.474;13.326;2023-03-18T11:14:35;100555.84;;;19.85;nan
44359;BME280;30077;52.474;13.326;2023-03-18T11:19:37;100550.94;;;19.79;nan
44359;BME280;30077;52.474;13.326;2023-03-18T11:24:38;100549.66;;;19.94;nan
44359;BME280;30077;52.474;13.326;2023-03-18T11:29:48;100545.22;;;19.93;nan
44359;BME280;30077;52.474;13.326;2023-03-18T11:34:59;100552.44;;;19.83;nan
44359;BME280;30077;52.474;13.326;2023-03-18T11:45:23;100543.88;;;20.29;nan
44359;BME280;30077;52.474;13.326;2023-03-18T11:50:29;100556.19;;;20.43;nan
44359;BME280;30077;52.474;13.326;2023-03-18T11:55:40;100540.22;;;20.40;nan
44359;BME280;30077;52.474;13.326;2023-03-18T12:06:13;100544.03;;;20.58;nan
44359;BME280;30077;52.474;13.326;2023-03-18T12:11:28;100547.38;;;20.41;nan
44359;BME280;30077;52.474;13.326;2023-03-18T12:16:40;100552.22;;;20.47;nan
44359;BME280;30077;52.474;13.326;2023-03-18T12:21:56;100548.50;;;20.38;nan
44359;BME280;30077;52.474;13.326;2023-03-18T12:32:05;100550.53;;;20.46;nan
44359;BME280;30077;52.474;13.326;2023-03-18T12:42:17;100550.13;;;20.30;nan
44359;BME280;30077;52.474;13.326;2023-03-18T12:47:26;100547.91;;;20.35;nan
44359;BME280;30077;52.474;13.326;2023-03-18T12:52:36;100546.47;;;20.40;nan
44359;BME280;30077;52.474;13.326;2023-03-18T12:57:44;100534.94;;;20.69;nan
44359;BME280;30077;52.474;13.326;2023-03-18T13:02:54;100541.69;;;21.44;nan
44359;BME280;30077;52.474;13.326;2023-03-18T13:08:04;100533.22;;;21.28;nan
44359;BME280;30077;52.474;13.326;2023-03-18T13:13:09;100535.47;;;21.03;nan
44359;BME280;30077;52.474;13.326;2023-03-18T13:18:23;100530.63;;;21.16;nan
44359;BME280;30077;52.474;13.326;2023-03-18T13:23:38;100528.19;;;21.04;nan
44359;BME280;30077;52.474;13.326;2023-03-18T13:29:02;100534.16;;;20.88;nan
44359;BME280;30077;52.474;13.326;2023-03-18T13:34:22;100529.50;;;20.59;nan
44359;BME280;30077;52.474;13.326;2023-03-18T13:50:02;100527.66;;;20.39;nan
44359;BME280;30077;52.474;13.326;2023-03-18T13:55:05;100530.22;;;20.40;nan
44359;BME280;30077;52.474;13.326;2023-03-18T14:05:32;100534.09;;;19.86;nan
44359;BME280;30077;52.474;13.326;2023-03-18T14:10:33;100536.31;;;19.49;nan
44359;BME280;30077;52.474;13.326;2023-03-18T14:15:42;100531.84;;;19.27;nan
44359;BME280;30077;52.474;13.326;2023-03-18T14:20:46;100525.19;;;19.31;nan
44359;BME280;30077;52.474;13.326;2023-03-18T14:26:01;100518.31;;;19.27;nan
44359;BME280;30077;52.474;13.326;2023-03-18T14:31:12;100515.81;;;19.14;nan
44359;BME280;30077;52.474;13.326;2023-03-18T14:36:13;100509.28;;;19.06;nan
44359;BME280;30077;52.474;13.326;2023-03-18T14:41:19;100519.16;;;19.28;nan
44359;BME280;30077;52.474;13.326;2023-03-18T14:46:22;100507.75;;;19.56;nan
44359;BME280;30077;52.474;13.326;2023-03-18T14:51:25;100511.91;;;19.60;nan
44359;BME280;30077;52.474;13.326;2023-03-18T14:56:30;100521.97;;;19.69;nan
44359;BME280;30077;52.474;13.326;2023-03-18T15:01:35;100504.53;;;20.04;nan
44359;BME280;30077;52.474;13.326;2023-03-18T15:06:38;100497.41;;;20.34;nan
44359;BME280;30077;52.474;13.326;2023-03-18T15:11:40;100494.41;;;20.37;nan
44359;BME280;30077;52.474;13.326;2023-03-18T15:16:47;100491.38;;;20.20;nan
44359;BME280;30077;52.474;13.326;2023-03-18T15:21:47;100499.22;;;20.24;nan
44359;BME280;30077;52.474;13.326;2023-03-18T15:26:55;100500.03;;;20.14;nan
44359;BME280;30077;52.474;13.326;2023-03-18T15:32:06;100505.88;;;19.89;nan
44359;BME280;30077;52.474;13.326;2023-03-18T15:37:22;100504.75;;;19.70;nan
44359;BME280;30077;52.474;13.326;2023-03-18T15:42:24;100512.41;;;19.65;nan
44359;BME280;30077;52.474;13.326;2023-03-18T15:47:30;100516.41;;;19.50;nan
44359;BME280;30077;52.474;13.326;2023-03-18T15:52:33;100523.56;;;19.40;nan
44359;BME280;30077;52.474;13.326;2023-03-18T15:57:37;100531.38;;;19.22;nan
44359;BME280;30077;52.474;13.326;2023-03-18T16:02:37;100530.56;;;19.10;nan
44359;BME280;30077;52.474;13.326;2023-03-18T16:07:37;100540.50;;;19.10;nan
44359;BME280;30077;52.474;13.326;2023-03-18T16:12:38;100543.06;;;19.22;nan
44359;BME280;30077;52.474;13.326;2023-03-18T16:17:39;100544.13;;;19.31;nan
44359;BME280;30077;52.474;13.326;2023-03-18T16:22:39;100544.75;;;19.23;nan
44359;BME280;30077;52.474;13.326;2023-03-18T16:27:41;100543.81;;;19.13;nan
44359;BME280;30077;52.474;13.326;2023-03-18T16:32:42;100553.06;;;19.11;nan
44359;BME280;30077;52.474;13.326;2023-03-18T16:37:42;100553.16;;;19.09;nan
44359;BME280;30077;52.474;13.326;2023-03-18T16:42:43;100562.06;;;18.89;nan
44359;BME280;30077;52.474;13.326;2023-03-18T16:47:44;100564.63;;;18.68;nan
44359;BME280;30077;52.474;13.326;2023-03-18T16:52:45;100563.03;;;18.54;nan
44359;BME280;30077;52.474;13.326;2023-03-18T16:58:04;100575.53;;;18.33;nan
44359;BME280;30077;52.474;13.326;2023-03-18T17:03:04;100585.91;;;18.03;nan
44359;BME280;30077;52.474;13.326;2023-03-18T17:08:04;100581.78;;;17.75;nan
44359;BME280;30077;52.474;13.326;2023-03-18T17:13:06;100583.72;;;17.73;nan
44359;BME280;30077;52.474;13.326;2023-03-18T17:18:11;100596.94;;;17.65;nan
44359;BME280;30077;52.474;13.326;2023-03-18T17:23:15;100594.47;;;17.62;nan
44359;BME280;30077;52.474;13.326;2023-03-18T17:28:17;100594.41;;;17.51;nan
44359;BME280;30077;52.474;13.326;2023-03-18T17:33:27;100604.38;;;17.38;nan
44359;BME280;30077;52.474;13.326;2023-03-18T17:38:29;100617.66;;;17.41;nan
44359;BME280;30077;52.474;13.326;2023-03-18T17:43:31;100606.81;;;17.29;nan
44359;BME280;30077;52.474;13.326;2023-03-18T17:48:32;100612.97;;;17.19;nan
44359;BME280;30077;52.474;13.326;2023-03-18T17:53:40;100618.41;;;17.06;nan
44359;BME280;30077;52.474;13.326;2023-03-18T17:58:42;100631.91;;;16.93;nan
44359;BME280;30077;52.474;13.326;2023-03-18T18:03:43;100613.69;;;16.84;nan
44359;BME280;30077;52.474;13.326;2023-03-18T18:08:43;100611.44;;;16.65;nan
44359;BME280;30077;52.474;13.326;2023-03-18T18:13:43;100603.25;;;16.54;nan
44359;BME280;30077;52.474;13.326;2023-03-18T18:18:43;100611.34;;;16.41;nan
44359;BME280;30077;52.474;13.326;2023-03-18T18:23:44;100626.50;;;16.29;nan
44359;BME280;30077;52.474;13.326;2023-03-18T18:28:45;100623.50;;;16.21;nan
44359;BME280;30077;52.474;13.326;2023-03-18T18:33:47;100625.97;;;16.11;nan
44359;BME280;30077;52.474;13.326;2023-03-18T18:38:48;100625.09;;;16.11;nan
44359;BME280;30077;52.474;13.326;2023-03-18T18:43:49;100620.78;;;16.08;nan
44359;BME280;30077;52.474;13.326;2023-03-18T18:48:50;100618.97;;;16.09;nan
44359;BME280;30077;52.474;13.326;2023-03-18T18:53:52;100622.09;;;16.03;nan
44359;BME280;30077;52.474;13.326;2023-03-18T18:58:52;100627.00;;;15.96;nan
44359;BME280;30077;52.474;13.326;2023-03-18T19:03:53;100633.69;;;15.91;nan
44359;BME280;30077;52.474;13.326;2023-03-18T19:08:54;100627.22;;;15.80;nan
44359;BME280;30077;52.474;13.326;2023-03-18T19:14:13;100635.03;;;15.71;nan
44359;BME280;30077;52.474;13.326;2023-03-18T19:19:16;100631.97;;;15.62;nan
44359;BME280;30077;52.474;13.326;2023-03-18T19:24:24;100625.53;;;15.65;nan
44359;BME280;30077;52.474;13.326;2023-03-18T19:29:25;100625.91;;;15.59;nan
44359;BME280;30077;52.474;13.326;2023-03-18T19:34:27;100632.09;;;15.47;nan
44359;BME280;30077;52.474;13.326;2023-03-18T19:39:28;100624.09;;;15.32;nan
44359;BME280;30077;52.474;13.326;2023-03-18T19:44:30;100637.16;;;15.24;nan
44359;BME280;30077;52.474;13.326;2023-03-18T19:49:31;100643.19;;;15.28;nan
44359;BME280;30077;52.474;13.326;2023-03-18T19:54:33;100653.25;;;15.38;nan
44359;BME280;30077;52.474;13.326;2023-03-18T19:59:34;100657.84;;;15.51;nan
44359;BME280;30077;52.474;13.326;2023-03-18T20:04:34;100660.03;;;15.58;nan
44359;BME280;30077;52.474;13.326;2023-03-18T20:09:35;100663.53;;;15.73;nan
44359;BME280;30077;52.474;13.326;2023-03-18T20:14:36;100670.66;;;15.74;nan
44359;BME280;30077;52.474;13.326;2023-03-18T20:19:38;100672.94;;;15.80;nan
44359;BME280;30077;52.474;13.326;2023-03-18T20:24:38;100675.72;;;15.79;nan
44359;BME280;30077;52.474;13.326;2023-03-18T20:29:38;100680.09;;;15.67;nan
44359;BME280;30077;52.474;13.326;2023-03-18T20:34:38;100679.53;;;15.48;nan
44359;BME280;30077;52.474;13.326;2023-03-18T20:39:40;100677.84;;;15.32;nan
44359;BME280;30077;52.474;13.326;2023-03-18T20:44:40;100681.97;;;15.24;nan
44359;BME280;30077;52.474;13.326;2023-03-18T20:49:41;100674.22;;;15.19;nan
44359;BME280;30077;52.474;13.326;2023-03-18T20:54:44;100681.25;;;15.07;nan
44359;BME280;30077;52.474;13.326;2023-03-18T20:59:45;100675.88;;;14.93;nan
44359;BME280;30077;52.474;13.326;2023-03-18T21:04:45;100676.56;;;14.82;nan
44359;BME280;30077;52.474;13.326;2023-03-18T21:09:45;100678.28;;;14.69;nan
44359;BME280;30077;52.474;13.326;2023-03-18T21:14:46;100684.22;;;14.60;nan
44359;BME280;30077;52.474;13.326;2023-03-18T21:19:46;100684.59;;;14.54;nan
44359;BME280;30077;52.474;13.326;2023-03-18T21:24:47;100689.31;;;14.49;nan
44359;BME280;30077;52.474;13.326;2023-03-18T21:29:48;100687.22;;;14.39;nan
44359;BME280;30077;52.474;13.326;2023-03-18T21:34:50;100684.31;;;14.28;nan
44359;BME280;30077;52.474;13.326;2023-03-18T21:39:51;100685.28;;;14.27;nan
44359;BME280;30077;52.474;13.326;2023-03-18T21:44:54;100692.34;;;14.14;nan
44359;BME280;30077;52.474;13.326;2023-03-18T21:49:55;100690.78;;;14.10;nan
44359;BME280;30077;52.474;13.326;2023-03-18T21:54:55;100683.66;;;14.09;nan
44359;BME280;30077;52.474;13.326;2023-03-18T21:59:56;100686.13;;;13.97;nan
44359;BME280;30077;52.474;13.326;2023-03-18T22:04:57;100682.88;;;13.92;nan
44359;BME280;30077;52.474;13.326;2023-03-18T22:09:57;100679.84;;;13.99;nan
44359;BME280;30077;52.474;13.326;2023-03-18T22:14:58;100686.50;;;13.91;nan
44359;BME280;30077;52.474;13.326;2023-03-18T22:19:59;100688.06;;;13.95;nan
44359;BME280;30077;52.474;13.326;2023-03-18T22:25:00;100693.00;;;13.87;nan
44359;BME280;30077;52.474;13.326;2023-03-18T22:30:00;100696.22;;;13.78;nan
44359;BME280;30077;52.474;13.326;2023-03-18T22:35:01;100679.59;;;13.71;nan
44359;BME280;30077;52.474;13.326;2023-03-18T22:40:01;100678.91;;;13.68;nan
44359;BME280;30077;52.474;13.326;2023-03-18T22:45:03;100695.28;;;13.63;nan
44359;BME280;30077;52.474;13.326;2023-03-18T22:50:05;100688.28;;;13.61;nan
44359;BME280;30077;52.474;13.326;2023-03-18T22:55:18;100684.22;;;13.54;nan
44359;BME280;30077;52.474;13.326;2023-03-18T23:00:35;100685.75;;;13.58;nan
44359;BME280;30077;52.474;13.326;2023-03-18T23:05:35;100691.13;;;13.58;nan
44359;BME280;30077;52.474;13.326;2023-03-18T23:10:35;100695.72;;;13.56;nan
44359;BME280;30077;52.474;13.326;2023-03-18T23:15:36;100688.19;;;13.46;nan
44359;BME280;30077;52.474;13.326;2023-03-18T23:20:36;100690.78;;;13.32;nan
44359;BME280;30077;52.474;13.326;2023-03-18T23:25:37;100701.06;;;13.24;nan
44359;BME280;30077;52.474;13.326;2023-03-18T23:30:38;100699.19;;;13.26;nan
44359;BME280;30077;52.474;13.326;2023-03-18T23:35:39;100690.19;;;13.27;nan
44359;BME280;30077;52.474;13.326;2023-03-18T23:40:39;100702.50;;;13.14;nan
44359;BME280;30077;52.474;13.326;2023-03-18T23:45:40;100683.75;;;13.14;nan
44359;BME280;30077;52.474;13.326;2023-03-18T23:50:40;100690.16;;;13.11;nan
44359;BME280;30077;52.474;13.326;2023-03-18T23:55:41;100682.34;;;13.07;nan
